METAR Data
IDs: Format: Raw Decoded Include TAF

Data at: 1044 UTC 19 Jan 2019

KLWB 191035Z AUTO 09003KT 10SM OVC024 02/M01 A3001 RMK AO2 T00231006